createdAt,value
2022-10-18T03:58:59.282Z,1019.17
2022-10-18T03:59:59.237Z,1019.17
2022-10-18T04:00:59.236Z,1019.16
2022-10-18T04:01:59.352Z,1019.18
2022-10-18T04:02:59.277Z,1019.22
2022-10-18T04:03:59.232Z,1019.24
2022-10-18T04:04:59.235Z,1019.25
2022-10-18T04:05:57.595Z,1019.24
2022-10-18T04:06:57.592Z,1019.24
2022-10-18T04:07:59.269Z,1019.22
2022-10-18T04:08:59.261Z,1019.22
2022-10-18T04:09:57.588Z,1019.22
2022-10-18T04:10:57.573Z,1019.24
2022-10-18T04:11:59.237Z,1019.20
2022-10-18T04:12:59.261Z,1019.23
2022-10-18T04:13:58.565Z,1019.23
2022-10-18T04:14:59.271Z,1019.22
2022-10-18T04:15:58.565Z,1019.22
2022-10-18T04:16:57.542Z,1019.20
2022-10-18T04:17:59.272Z,1019.18
2022-10-18T04:18:57.574Z,1019.17
2022-10-18T04:19:59.259Z,1019.18
2022-10-18T04:20:57.531Z,1019.20
2022-10-18T04:21:59.245Z,1019.17
2022-10-18T04:22:59.261Z,1019.15
2022-10-18T04:23:59.250Z,1019.14
2022-10-18T04:24:57.522Z,1019.15
2022-10-18T04:25:59.259Z,1019.18
2022-10-18T04:26:59.260Z,1019.18
2022-10-18T04:27:59.295Z,1019.21
2022-10-18T04:28:59.298Z,1019.23
2022-10-18T04:29:59.255Z,1019.23
2022-10-18T04:30:59.283Z,1019.21
2022-10-18T04:31:59.255Z,1019.20
2022-10-18T04:32:59.283Z,1019.19
2022-10-18T04:33:59.258Z,1019.16
2022-10-18T04:34:57.489Z,1019.17
2022-10-18T04:35:59.266Z,1019.15
2022-10-18T04:36:57.481Z,1019.19
2022-10-18T04:37:59.278Z,1019.22
2022-10-18T04:38:58.470Z,1019.21
2022-10-18T04:39:59.287Z,1019.22
2022-10-18T04:40:59.265Z,1019.23
2022-10-18T04:41:59.271Z,1019.22
2022-10-18T04:42:59.274Z,1019.22
2022-10-18T04:43:59.283Z,1019.25
2022-10-18T04:44:59.324Z,1019.22
2022-10-18T04:45:59.265Z,1019.21
2022-10-18T04:46:59.275Z,1019.22
2022-10-18T04:47:59.315Z,1019.25
2022-10-18T04:48:58.780Z,1019.27
2022-10-18T04:49:59.291Z,1019.24
2022-10-18T04:50:59.285Z,1019.26
2022-10-18T04:51:59.274Z,1019.22
2022-10-18T04:52:59.297Z,1019.26
2022-10-18T04:53:59.285Z,1019.22
2022-10-18T04:54:59.288Z,1019.24
2022-10-18T04:55:59.291Z,1019.21
2022-10-18T04:56:59.295Z,1019.24
2022-10-18T04:57:59.286Z,1019.25
2022-10-18T04:58:59.293Z,1019.23
2022-10-18T04:59:58.811Z,1019.24
2022-10-18T05:00:59.302Z,1019.19
2022-10-18T05:01:59.424Z,1019.20
2022-10-18T05:02:57.411Z,1019.23
2022-10-18T05:03:57.418Z,1019.24
2022-10-18T05:04:59.307Z,1019.26
2022-10-18T05:06:01.883Z,1019.28
2022-10-18T05:06:57.381Z,1019.30
2022-10-18T05:07:57.387Z,1019.28
2022-10-18T05:08:58.798Z,1019.35
2022-10-18T05:09:57.378Z,1019.35
2022-10-18T05:10:59.384Z,1019.35
2022-10-18T05:11:59.292Z,1019.34
2022-10-18T05:12:59.301Z,1019.37
2022-10-18T05:13:59.303Z,1019.36
2022-10-18T05:14:59.323Z,1019.38
2022-10-18T05:15:59.310Z,1019.36
2022-10-18T05:16:59.296Z,1019.37
2022-10-18T05:17:59.306Z,1019.37
2022-10-18T05:18:59.307Z,1019.40
2022-10-18T05:19:59.330Z,1019.39
2022-10-18T05:20:59.309Z,1019.41
2022-10-18T05:21:59.295Z,1019.37
2022-10-18T05:22:59.305Z,1019.36
2022-10-18T05:23:59.314Z,1019.31
2022-10-18T05:24:57.336Z,1019.30
2022-10-18T05:25:57.380Z,1019.33
2022-10-18T05:26:57.334Z,1019.33
2022-10-18T05:27:57.352Z,1019.38
2022-10-18T05:28:58.831Z,1019.34
2022-10-18T05:29:59.976Z,1019.37
2022-10-18T05:30:58.364Z,1019.34
2022-10-18T05:31:58.819Z,1019.34
2022-10-18T05:32:58.826Z,1019.34
2022-10-18T05:33:57.310Z,1019.34
2022-10-18T05:34:57.301Z,1019.32
2022-10-18T05:35:58.819Z,1019.29
2022-10-18T05:36:57.302Z,1019.30
2022-10-18T05:37:57.295Z,1019.27
2022-10-18T05:39:00.951Z,1019.25
2022-10-18T05:39:57.293Z,1019.27
2022-10-18T05:40:58.332Z,1019.27
2022-10-18T05:41:57.283Z,1019.27
2022-10-18T05:42:58.836Z,1019.26
2022-10-18T05:43:57.275Z,1019.25
2022-10-18T05:44:58.828Z,1019.27
2022-10-18T05:45:58.850Z,1019.33
2022-10-18T05:46:57.276Z,1019.35
2022-10-18T05:47:58.836Z,1019.36
2022-10-18T05:48:57.265Z,1019.36
2022-10-18T05:49:58.869Z,1019.40
2022-10-18T05:50:58.834Z,1019.43
2022-10-18T05:51:57.271Z,1019.44
2022-10-18T05:53:06.944Z,1019.46
2022-10-18T05:53:58.825Z,1019.45
2022-10-18T05:54:58.828Z,1019.40
2022-10-18T05:55:57.240Z,1019.38
2022-10-18T05:56:57.241Z,1019.35
2022-10-18T05:57:58.846Z,1019.34
2022-10-18T05:58:57.245Z,1019.37
2022-10-18T05:59:57.227Z,1019.37
2022-10-18T06:00:57.234Z,1019.39
2022-10-18T06:01:57.223Z,1019.42
2022-10-18T06:03:00.337Z,1019.42
2022-10-18T06:03:57.215Z,1019.47
2022-10-18T06:04:57.226Z,1019.46
2022-10-18T06:05:57.236Z,1019.48
2022-10-18T06:06:57.205Z,1019.44
2022-10-18T06:07:58.848Z,1019.42
2022-10-18T06:08:58.212Z,1019.39
2022-10-18T06:09:57.219Z,1019.38
2022-10-18T06:10:58.882Z,1019.41
2022-10-18T06:11:58.864Z,1019.40
2022-10-18T06:12:57.191Z,1019.44
2022-10-18T06:13:58.843Z,1019.46
2022-10-18T06:14:58.854Z,1019.45
2022-10-18T06:15:58.838Z,1019.46
2022-10-18T06:16:58.861Z,1019.47
2022-10-18T06:17:58.871Z,1019.45
2022-10-18T06:18:58.855Z,1019.52
2022-10-18T06:19:58.844Z,1019.53
2022-10-18T06:20:58.849Z,1019.57
2022-10-18T06:21:58.872Z,1019.57
2022-10-18T06:22:58.851Z,1019.58
2022-10-18T06:23:58.865Z,1019.60
2022-10-18T06:24:58.856Z,1019.59
2022-10-18T06:25:58.850Z,1019.60
2022-10-18T06:26:57.201Z,1019.63
2022-10-18T06:27:57.156Z,1019.66
2022-10-18T06:28:58.989Z,1019.70
2022-10-18T06:29:57.146Z,1019.72
2022-10-18T06:30:57.154Z,1019.71
2022-10-18T06:31:57.159Z,1019.70
2022-10-18T06:32:58.893Z,1019.74
2022-10-18T06:33:57.137Z,1019.72
2022-10-18T06:34:57.127Z,1019.75
2022-10-18T06:35:57.127Z,1019.75
2022-10-18T06:36:58.865Z,1019.76
2022-10-18T06:37:57.137Z,1019.74
2022-10-18T06:38:58.902Z,1019.73
2022-10-18T06:39:57.128Z,1019.75
2022-10-18T06:40:57.115Z,1019.73
2022-10-18T06:41:57.110Z,1019.72
2022-10-18T06:43:05.866Z,1019.73
2022-10-18T06:43:57.120Z,1019.74
2022-10-18T06:44:58.876Z,1019.78
2022-10-18T06:45:58.878Z,1019.80
2022-10-18T06:46:58.880Z,1019.86
2022-10-18T06:47:59.102Z,1019.85
2022-10-18T06:48:58.889Z,1019.90
2022-10-18T06:49:58.873Z,1019.88
2022-10-18T06:50:58.886Z,1019.88
2022-10-18T06:51:58.887Z,1019.87
2022-10-18T06:52:58.881Z,1019.86
2022-10-18T06:54:16.920Z,1019.84
2022-10-18T06:54:58.906Z,1019.83
2022-10-18T06:55:58.872Z,1019.89
2022-10-18T06:56:58.902Z,1019.88
2022-10-18T06:57:57.087Z,1019.90
2022-10-18T06:59:58.946Z,1019.93
2022-10-18T07:00:58.909Z,1019.94
2022-10-18T07:01:58.935Z,1019.92
2022-10-18T07:02:58.956Z,1019.95
2022-10-18T07:03:58.887Z,1020.03
2022-10-18T07:04:58.395Z,1020.03
2022-10-18T07:05:58.903Z,1020.03
2022-10-18T07:06:58.897Z,1020.04
2022-10-18T07:07:57.047Z,1020.04
2022-10-18T07:08:57.121Z,1020.10
2022-10-18T07:09:57.062Z,1020.09
2022-10-18T07:10:58.918Z,1020.09
2022-10-18T07:11:57.021Z,1020.12
2022-10-18T07:13:13.558Z,1020.15
2022-10-18T07:13:58.035Z,1020.14
2022-10-18T07:14:57.024Z,1020.13
2022-10-18T07:15:59.905Z,1020.18
2022-10-18T07:16:57.012Z,1020.17
2022-10-18T07:17:58.893Z,1020.28
2022-10-18T07:18:58.421Z,1020.24
2022-10-18T07:19:57.011Z,1020.23
2022-10-18T07:20:58.916Z,1020.24
2022-10-18T07:21:57.016Z,1020.20
2022-10-18T07:22:58.914Z,1020.20
2022-10-18T07:23:56.987Z,1020.12
2022-10-18T07:24:58.922Z,1020.09
2022-10-18T07:25:58.924Z,1020.05
2022-10-18T07:26:58.918Z,1020.05
2022-10-18T07:27:58.930Z,1020.06
2022-10-18T07:28:59.078Z,1020.08
2022-10-18T07:29:58.906Z,1020.10
2022-10-18T07:31:03.588Z,1020.10
2022-10-18T07:31:58.953Z,1020.13
2022-10-18T07:32:58.906Z,1020.15
2022-10-18T07:33:58.935Z,1020.18
2022-10-18T07:34:58.972Z,1020.20
2022-10-18T07:35:58.970Z,1020.21
2022-10-18T07:36:58.930Z,1020.22
2022-10-18T07:37:58.920Z,1020.22
2022-10-18T07:38:58.922Z,1020.26
2022-10-18T07:39:58.935Z,1020.27
2022-10-18T07:40:58.957Z,1020.28
2022-10-18T07:41:58.936Z,1020.27
2022-10-18T07:43:02.721Z,1020.28
2022-10-18T07:43:58.922Z,1020.26
2022-10-18T07:44:58.919Z,1020.23
2022-10-18T07:45:58.935Z,1020.24
2022-10-18T07:46:56.934Z,1020.24
2022-10-18T07:47:58.920Z,1020.24
2022-10-18T07:48:57.936Z,1020.27
2022-10-18T07:49:58.427Z,1020.27
2022-10-18T07:50:58.447Z,1020.31
2022-10-18T07:51:58.463Z,1020.32
2022-10-18T07:52:58.498Z,1020.32
2022-10-18T07:53:58.445Z,1020.34
2022-10-18T07:54:58.424Z,1020.33
2022-10-18T07:55:58.439Z,1020.33
2022-10-18T07:56:58.464Z,1020.35
2022-10-18T07:57:58.430Z,1020.37
2022-10-18T07:58:58.446Z,1020.38
2022-10-18T07:59:58.523Z,1020.37
2022-10-18T08:00:58.450Z,1020.42
2022-10-18T08:01:58.503Z,1020.45
2022-10-18T08:02:58.433Z,1020.47
2022-10-18T08:04:01.053Z,1020.51
2022-10-18T08:04:58.452Z,1020.51
2022-10-18T08:05:58.435Z,1020.49
2022-10-18T08:06:58.438Z,1020.50
2022-10-18T08:07:58.439Z,1020.49
2022-10-18T08:08:58.444Z,1020.46
2022-10-18T08:09:58.463Z,1020.46
2022-10-18T08:10:58.456Z,1020.46
2022-10-18T08:11:58.451Z,1020.46
2022-10-18T08:12:58.462Z,1020.47
2022-10-18T08:13:58.461Z,1020.41
2022-10-18T08:14:58.478Z,1020.42
2022-10-18T08:15:58.494Z,1020.41
2022-10-18T08:16:58.439Z,1020.39
2022-10-18T08:17:56.918Z,1020.43
2022-10-18T08:18:56.857Z,1020.46
2022-10-18T08:20:11.451Z,1020.46
2022-10-18T08:20:58.453Z,1020.53
2022-10-18T08:21:58.480Z,1020.51
2022-10-18T08:23:00.363Z,1020.51
2022-10-18T08:23:58.494Z,1020.48
2022-10-18T08:24:58.454Z,1020.49
2022-10-18T08:25:58.464Z,1020.48
2022-10-18T08:26:58.490Z,1020.48
2022-10-18T08:27:58.457Z,1020.53
2022-10-18T08:29:17.788Z,1020.58
2022-10-18T08:29:58.567Z,1020.57
2022-10-18T08:30:58.465Z,1020.63
2022-10-18T08:31:58.457Z,1020.70
2022-10-18T08:32:58.469Z,1020.68
2022-10-18T08:33:58.482Z,1020.67
2022-10-18T08:34:58.460Z,1020.67
2022-10-18T08:35:58.560Z,1020.64
2022-10-18T08:36:58.464Z,1020.60
2022-10-18T08:37:58.502Z,1020.61
2022-10-18T08:38:58.511Z,1020.62
2022-10-18T08:39:58.489Z,1020.61
2022-10-18T08:40:58.474Z,1020.66
2022-10-18T08:41:56.811Z,1020.69
2022-10-18T08:42:56.803Z,1020.76
2022-10-18T08:44:00.202Z,1020.78
2022-10-18T08:44:56.806Z,1020.85
2022-10-18T08:45:56.803Z,1020.87
2022-10-18T08:46:56.791Z,1020.88
2022-10-18T08:47:58.475Z,1020.87
2022-10-18T08:48:56.816Z,1020.87
2022-10-18T08:49:58.494Z,1020.88
2022-10-18T08:50:56.790Z,1020.86
2022-10-18T08:51:58.491Z,1020.83
2022-10-18T08:52:56.797Z,1020.83
2022-10-18T08:53:58.477Z,1020.84
2022-10-18T08:54:56.780Z,1020.87
2022-10-18T08:55:58.488Z,1020.81
2022-10-18T08:56:58.494Z,1020.82
2022-10-18T08:57:56.775Z,1020.84
2022-10-18T08:58:58.536Z,1020.88
2022-10-18T08:59:58.531Z,1020.93
2022-10-18T09:00:58.484Z,1020.97
2022-10-18T09:01:58.496Z,1020.98
2022-10-18T09:02:58.523Z,1020.93
2022-10-18T09:03:58.486Z,1020.91
2022-10-18T09:04:58.486Z,1020.93
2022-10-18T09:05:58.500Z,1020.95
2022-10-18T09:06:58.500Z,1020.98
2022-10-18T09:07:58.499Z,1021.06
2022-10-18T09:08:58.500Z,1021.10
2022-10-18T09:09:58.492Z,1021.15
2022-10-18T09:12:01.862Z,1021.20
2022-10-18T09:12:58.523Z,1021.17
2022-10-18T09:13:57.760Z,1021.13
2022-10-18T09:14:56.755Z,1021.09
2022-10-18T09:15:58.547Z,1021.07
2022-10-18T09:16:56.754Z,1021.07
2022-10-18T09:17:56.748Z,1021.05
2022-10-18T09:18:58.540Z,1021.12
2022-10-18T09:19:57.758Z,1021.13
2022-10-18T09:20:58.517Z,1021.16
2022-10-18T09:21:56.725Z,1021.12
2022-10-18T09:22:58.500Z,1021.10
2022-10-18T09:23:58.524Z,1021.09
2022-10-18T09:24:58.520Z,1021.10
2022-10-18T09:25:58.515Z,1021.17
2022-10-18T09:26:58.504Z,1021.18
2022-10-18T09:27:58.524Z,1021.21
2022-10-18T09:28:58.630Z,1021.22
2022-10-18T09:29:58.512Z,1021.19
2022-10-18T09:30:59.597Z,1021.20
2022-10-18T09:31:58.531Z,1021.18
2022-10-18T09:32:58.540Z,1021.14
2022-10-18T09:33:58.525Z,1021.16
2022-10-18T09:34:58.514Z,1021.14
2022-10-18T09:35:58.518Z,1021.16
2022-10-18T09:36:58.044Z,1021.13
2022-10-18T09:37:57.709Z,1021.18
2022-10-18T09:38:59.879Z,1021.23
2022-10-18T09:39:56.701Z,1021.25
2022-10-18T09:40:56.702Z,1021.24
2022-10-18T09:41:58.558Z,1021.24
2022-10-18T09:42:56.690Z,1021.24
2022-10-18T09:43:56.684Z,1021.21
2022-10-18T09:44:56.689Z,1021.26
2022-10-18T09:45:56.680Z,1021.28
2022-10-18T09:46:56.676Z,1021.31
2022-10-18T09:47:58.562Z,1021.34
2022-10-18T09:48:56.707Z,1021.33
2022-10-18T09:49:56.679Z,1021.35
2022-10-18T09:50:56.672Z,1021.34
2022-10-18T09:51:58.551Z,1021.30
2022-10-18T09:52:58.040Z,1021.31
2022-10-18T09:53:58.561Z,1021.25
2022-10-18T09:54:58.555Z,1021.28
2022-10-18T09:55:58.526Z,1021.28
2022-10-18T09:56:58.534Z,1021.27
2022-10-18T09:57:59.054Z,1021.24
2022-10-18T09:58:56.671Z,1021.19
2022-10-18T09:59:58.559Z,1021.14
2022-10-18T10:00:56.657Z,1021.14
2022-10-18T10:01:58.549Z,1021.13
2022-10-18T10:13:02.428Z,1021.14
2022-10-18T10:14:02.498Z,1021.13
2022-10-18T10:15:02.393Z,1021.14
2022-10-18T10:16:02.407Z,1021.10
2022-10-18T10:17:02.428Z,1021.11
2022-10-18T10:18:02.432Z,1021.08
2022-10-18T10:19:03.406Z,1021.07
2022-10-18T10:20:02.401Z,1021.06
2022-10-18T10:21:02.420Z,1021.09
2022-10-18T10:22:02.411Z,1021.13
2022-10-18T10:23:02.407Z,1021.15
2022-10-18T10:24:02.434Z,1021.15
2022-10-18T10:25:02.404Z,1021.16
2022-10-18T10:26:02.411Z,1021.12
2022-10-18T10:27:02.405Z,1021.11
2022-10-18T10:28:02.414Z,1021.09
2022-10-18T10:29:02.577Z,1021.09
2022-10-18T10:30:06.718Z,1021.10
2022-10-18T10:31:02.422Z,1021.09
2022-10-18T10:32:00.807Z,1021.16
2022-10-18T10:33:00.803Z,1021.20
2022-10-18T10:34:02.431Z,1021.19
2022-10-18T10:35:02.425Z,1021.15
2022-10-18T10:36:00.789Z,1021.13
2022-10-18T10:37:02.447Z,1021.13
2022-10-18T10:38:02.449Z,1021.14
2022-10-18T10:39:01.944Z,1021.22
2022-10-18T10:40:17.323Z,1021.25
2022-10-18T10:41:00.809Z,1021.24
2022-10-18T10:42:00.807Z,1021.19
2022-10-18T10:43:13.040Z,1021.18
2022-10-18T10:44:02.448Z,1021.16
2022-10-18T10:45:00.812Z,1021.15
2022-10-18T10:46:02.434Z,1021.14
2022-10-18T10:47:00.806Z,1021.09
2022-10-18T10:48:02.441Z,1021.19
2022-10-18T10:49:27.849Z,1021.17
2022-10-18T10:50:02.430Z,1021.19
2022-10-18T10:51:01.823Z,1021.19
2022-10-18T10:52:08.856Z,1021.17
2022-10-18T10:53:02.446Z,1021.10
2022-10-18T10:54:00.816Z,1021.12
2022-10-18T10:55:16.988Z,1021.10
2022-10-18T10:56:00.936Z,1021.07
2022-10-18T10:57:00.849Z,1021.08
2022-10-18T10:58:02.471Z,1021.09
2022-10-18T10:59:02.497Z,1021.04
2022-10-18T11:00:02.457Z,1021.06
2022-10-18T11:01:02.489Z,1021.04
2022-10-18T11:02:02.447Z,1021.08
2022-10-18T11:03:11.046Z,1021.09
2022-10-18T11:04:01.847Z,1021.09
2022-10-18T11:05:00.818Z,1021.06
2022-10-18T11:06:01.096Z,1021.09
2022-10-18T11:07:00.839Z,1021.15
2022-10-18T11:08:02.459Z,1021.17
2022-10-18T11:09:02.456Z,1021.16
2022-10-18T11:10:02.465Z,1021.22
2022-10-18T11:11:01.974Z,1021.17
2022-10-18T11:12:02.478Z,1021.18
2022-10-18T11:13:02.497Z,1021.12
2022-10-18T11:14:24.308Z,1021.11
2022-10-18T11:15:00.825Z,1021.08
2022-10-18T11:16:00.842Z,1021.09
2022-10-18T11:17:05.613Z,1021.10
2022-10-18T11:18:02.475Z,1021.11
2022-10-18T11:19:02.519Z,1021.11
2022-10-18T11:20:00.833Z,1021.13
2022-10-18T11:21:02.466Z,1021.13
2022-10-18T11:22:02.481Z,1021.10
2022-10-18T11:23:02.478Z,1021.11
2022-10-18T11:24:02.475Z,1021.08
2022-10-18T11:25:02.486Z,1021.07
2022-10-18T11:26:01.842Z,1021.09
2022-10-18T11:27:02.481Z,1021.13
2022-10-18T11:28:02.496Z,1021.09
2022-10-18T11:29:02.519Z,1021.11
2022-10-18T11:30:02.485Z,1021.12
2022-10-18T11:31:02.469Z,1021.07
2022-10-18T11:32:02.589Z,1021.07
2022-10-18T11:33:02.489Z,1021.08
2022-10-18T11:34:10.466Z,1021.10
2022-10-18T11:35:02.527Z,1021.10
2022-10-18T11:36:03.942Z,1021.10
2022-10-18T11:37:27.611Z,1021.16
2022-10-18T11:38:00.933Z,1021.14
2022-10-18T11:39:02.012Z,1021.08
2022-10-18T11:40:00.867Z,1021.01
2022-10-18T11:41:00.870Z,1020.99
2022-10-18T11:42:02.006Z,1020.99
2022-10-18T11:43:00.876Z,1020.99
2022-10-18T11:44:03.318Z,1021.00
2022-10-18T11:45:00.886Z,1021.04
2022-10-18T11:46:02.522Z,1021.01
2022-10-18T11:47:02.489Z,1020.99
2022-10-18T11:48:02.567Z,1020.97
2022-10-18T11:49:02.506Z,1020.90
2022-10-18T11:50:02.488Z,1020.87
2022-10-18T11:51:02.512Z,1020.94
2022-10-18T11:52:08.345Z,1020.94
2022-10-18T11:53:02.500Z,1020.95
2022-10-18T11:54:02.524Z,1020.95
2022-10-18T11:55:02.509Z,1020.98
2022-10-18T11:56:02.513Z,1020.92
2022-10-18T11:57:00.911Z,1020.92
2022-10-18T11:58:02.571Z,1020.90
2022-10-18T11:59:02.507Z,1020.87
2022-10-18T12:00:02.502Z,1020.91
2022-10-18T12:01:02.541Z,1020.94
2022-10-18T12:02:02.521Z,1020.95
2022-10-18T12:03:02.029Z,1020.95
2022-10-18T12:04:02.578Z,1020.93
2022-10-18T12:05:22.710Z,1020.85
2022-10-18T12:06:02.537Z,1020.83
2022-10-18T12:07:02.524Z,1020.82
2022-10-18T12:08:02.508Z,1020.86
2022-10-18T12:09:02.523Z,1020.86
2022-10-18T12:10:02.043Z,1020.89
2022-10-18T12:11:05.868Z,1020.90
2022-10-18T12:12:00.980Z,1020.87
2022-10-18T12:13:00.979Z,1020.87
2022-10-18T12:14:02.542Z,1020.82
2022-10-18T12:15:00.994Z,1020.85
2022-10-18T12:16:02.544Z,1020.87
2022-10-18T12:17:28.057Z,1020.87
2022-10-18T12:18:01.084Z,1020.94
2022-10-18T12:19:01.022Z,1020.93
2022-10-18T12:20:01.030Z,1020.81
2022-10-18T12:21:01.023Z,1020.80
2022-10-18T12:22:02.539Z,1020.78
2022-10-18T12:23:01.048Z,1020.79
2022-10-18T12:24:03.079Z,1020.79
2022-10-18T12:25:01.055Z,1020.82
2022-10-18T12:26:03.034Z,1020.85
2022-10-18T12:27:03.057Z,1020.85
2022-10-18T12:28:02.147Z,1020.84
2022-10-18T12:29:03.120Z,1020.83
2022-10-18T12:30:02.094Z,1020.82
2022-10-18T12:31:03.050Z,1020.78
2022-10-18T12:32:03.052Z,1020.82
2022-10-18T12:33:03.682Z,1020.80
2022-10-18T12:34:03.050Z,1020.83
2022-10-18T12:35:03.090Z,1020.77
2022-10-18T12:36:03.079Z,1020.78
2022-10-18T12:37:01.159Z,1020.73
2022-10-18T12:38:03.092Z,1020.74
2022-10-18T12:39:01.153Z,1020.74
2022-10-18T12:40:14.384Z,1020.76
2022-10-18T12:41:02.152Z,1020.83
2022-10-18T12:42:03.066Z,1020.81
2022-10-18T12:43:01.166Z,1020.81
2022-10-18T12:44:01.169Z,1020.82
2022-10-18T12:45:03.054Z,1020.86
2022-10-18T12:46:02.188Z,1020.78
2022-10-18T12:47:03.088Z,1020.79
2022-10-18T12:48:01.214Z,1020.80
2022-10-18T12:49:03.119Z,1020.79
2022-10-18T12:50:03.071Z,1020.81
2022-10-18T12:51:03.096Z,1020.76
2022-10-18T12:52:03.064Z,1020.75
2022-10-18T12:53:03.096Z,1020.76
2022-10-18T12:54:03.071Z,1020.74
2022-10-18T12:55:03.111Z,1020.75
2022-10-18T12:56:03.070Z,1020.75
2022-10-18T12:57:03.126Z,1020.76
2022-10-18T12:58:03.092Z,1020.77
2022-10-18T12:59:03.112Z,1020.74
2022-10-18T13:00:03.092Z,1020.74
2022-10-18T13:01:03.207Z,1020.67
2022-10-18T13:02:03.096Z,1020.72
2022-10-18T13:03:03.082Z,1020.73
2022-10-18T13:04:03.109Z,1020.72
2022-10-18T13:05:03.181Z,1020.74
2022-10-18T13:06:06.607Z,1020.74
2022-10-18T13:07:03.166Z,1020.70
2022-10-18T13:08:01.349Z,1020.75
2022-10-18T13:09:03.148Z,1020.80
2022-10-18T13:10:03.113Z,1020.76
2022-10-18T13:11:01.355Z,1020.74
2022-10-18T13:12:02.127Z,1020.73
2022-10-18T13:13:12.183Z,1020.73
2022-10-18T13:14:02.635Z,1020.76
2022-10-18T13:15:12.567Z,1020.83
2022-10-18T13:16:01.383Z,1020.85
2022-10-18T13:17:03.115Z,1020.85
2022-10-18T13:18:01.412Z,1020.90
2022-10-18T13:19:03.118Z,1020.87
2022-10-18T13:20:24.517Z,1020.83
2022-10-18T13:21:03.099Z,1020.84
2022-10-18T13:22:03.105Z,1020.87
2022-10-18T13:23:02.599Z,1020.85
2022-10-18T13:24:03.125Z,1020.86
2022-10-18T13:25:03.118Z,1020.90
2022-10-18T13:26:03.148Z,1020.88
2022-10-18T13:27:18.083Z,1020.87
2022-10-18T13:28:03.129Z,1020.87
2022-10-18T13:29:03.237Z,1020.87
2022-10-18T13:30:03.127Z,1020.87
2022-10-18T13:31:03.119Z,1020.86
2022-10-18T13:32:03.159Z,1020.87
2022-10-18T13:33:03.119Z,1020.88
2022-10-18T13:34:03.116Z,1020.87
2022-10-18T13:35:03.142Z,1020.89
2022-10-18T13:36:03.130Z,1020.88
2022-10-18T13:37:03.135Z,1020.84
2022-10-18T13:38:03.138Z,1020.84
2022-10-18T13:39:03.133Z,1020.86
2022-10-18T13:40:03.151Z,1020.90
2022-10-18T13:41:03.132Z,1020.90
2022-10-18T13:42:03.140Z,1020.86
2022-10-18T13:43:03.142Z,1020.88
2022-10-18T13:44:03.160Z,1020.87
2022-10-18T13:45:03.162Z,1020.91
2022-10-18T13:46:03.142Z,1020.93
2022-10-18T13:47:03.167Z,1020.92
2022-10-18T13:48:03.147Z,1020.98
2022-10-18T13:49:03.153Z,1020.97
2022-10-18T13:50:03.488Z,1020.96
2022-10-18T13:51:01.667Z,1020.96
2022-10-18T13:52:03.646Z,1020.96
2022-10-18T13:53:03.658Z,1020.97
2022-10-18T13:54:03.678Z,1021.05
2022-10-18T13:55:01.697Z,1021.00
2022-10-18T13:56:03.178Z,1021.01
2022-10-18T13:57:01.711Z,1021.00
2022-10-18T13:58:01.710Z,1021.02
2022-10-18T13:59:14.274Z,1021.01
2022-10-18T14:00:02.995Z,1021.07
2022-10-18T14:01:03.758Z,1021.08
2022-10-18T14:02:01.794Z,1021.07
2022-10-18T14:03:03.970Z,1021.09
2022-10-18T14:04:03.190Z,1021.11
2022-10-18T14:05:16.888Z,1021.12
2022-10-18T14:06:01.774Z,1021.12
2022-10-18T14:07:03.661Z,1021.12
2022-10-18T14:08:03.090Z,1021.12
2022-10-18T14:09:09.741Z,1021.11
2022-10-18T14:10:04.096Z,1021.11
2022-10-18T14:11:03.913Z,1021.09
2022-10-18T14:12:01.829Z,1021.15
2022-10-18T14:13:02.821Z,1021.15
2022-10-18T14:14:01.829Z,1021.15
2022-10-18T14:15:03.667Z,1021.22
2022-10-18T14:16:01.865Z,1021.18
2022-10-18T14:17:03.697Z,1021.19
2022-10-18T14:18:01.873Z,1021.16
2022-10-18T14:19:03.683Z,1021.18
2022-10-18T14:20:02.974Z,1021.24
2022-10-18T14:21:21.845Z,1021.21
2022-10-18T14:22:01.887Z,1021.19
2022-10-18T14:23:01.891Z,1021.21
2022-10-18T14:24:03.680Z,1021.22
2022-10-18T14:25:03.683Z,1021.21
2022-10-18T14:26:03.694Z,1021.20
2022-10-18T14:27:03.718Z,1021.25
2022-10-18T14:28:03.711Z,1021.20
2022-10-18T14:29:03.758Z,1021.20
2022-10-18T14:30:03.685Z,1021.23
2022-10-18T14:31:03.730Z,1021.22
2022-10-18T14:32:03.713Z,1021.25
2022-10-18T14:33:03.703Z,1021.25
2022-10-18T14:34:03.701Z,1021.26
2022-10-18T14:35:33.049Z,1021.27
2022-10-18T14:36:03.693Z,1021.34
2022-10-18T14:37:03.708Z,1021.34
2022-10-18T14:38:02.053Z,1021.34
2022-10-18T14:39:01.992Z,1021.35
2022-10-18T14:40:02.045Z,1021.31
2022-10-18T14:41:01.999Z,1021.36
2022-10-18T14:42:03.715Z,1021.37
2022-10-18T14:43:02.018Z,1021.33
2022-10-18T14:44:02.022Z,1021.32
2022-10-18T14:45:02.082Z,1021.32
2022-10-18T14:46:03.218Z,1021.29
2022-10-18T14:47:02.033Z,1021.36
2022-10-18T14:48:02.051Z,1021.32
2022-10-18T14:49:03.727Z,1021.34
2022-10-18T14:50:02.128Z,1021.31
2022-10-18T14:51:03.743Z,1021.35
2022-10-18T14:52:02.055Z,1021.36
2022-10-18T14:53:02.077Z,1021.33
2022-10-18T14:54:02.150Z,1021.32
2022-10-18T14:55:03.723Z,1021.38
2022-10-18T14:56:03.734Z,1021.31
2022-10-18T14:57:03.717Z,1021.31
2022-10-18T14:58:03.715Z,1021.35
2022-10-18T14:59:03.782Z,1021.37
2022-10-18T15:00:03.756Z,1021.39
2022-10-18T15:01:03.804Z,1021.38
2022-10-18T15:02:02.756Z,1021.39
2022-10-18T15:03:03.746Z,1021.38
2022-10-18T15:04:03.733Z,1021.35
2022-10-18T15:05:03.743Z,1021.40
2022-10-18T15:06:03.729Z,1021.41
2022-10-18T15:07:03.751Z,1021.45
2022-10-18T15:08:03.104Z,1021.48
2022-10-18T15:09:02.104Z,1021.48
2022-10-18T15:10:03.754Z,1021.47
2022-10-18T15:11:02.097Z,1021.48
2022-10-18T15:12:03.770Z,1021.48
2022-10-18T15:13:09.803Z,1021.49
2022-10-18T15:14:02.120Z,1021.48
2022-10-18T15:15:02.126Z,1021.48
2022-10-18T15:16:03.113Z,1021.48
2022-10-18T15:17:03.757Z,1021.47
2022-10-18T15:18:02.114Z,1021.48
2022-10-18T15:19:02.109Z,1021.47
2022-10-18T15:20:05.211Z,1021.45
2022-10-18T15:21:02.132Z,1021.45
2022-10-18T15:23:03.763Z,1021.45
2022-10-18T15:24:02.134Z,1021.41
2022-10-18T15:25:02.116Z,1021.43
2022-10-18T15:26:02.117Z,1021.41
2022-10-18T15:27:03.803Z,1021.42
2022-10-18T15:28:03.786Z,1021.43
2022-10-18T15:29:06.125Z,1021.41
2022-10-18T15:30:03.787Z,1021.40
2022-10-18T15:31:02.129Z,1021.45
2022-10-18T15:32:02.118Z,1021.45
2022-10-18T15:33:03.785Z,1021.47
2022-10-18T15:34:03.768Z,1021.45
2022-10-18T15:35:02.123Z,1021.41
2022-10-18T15:36:03.759Z,1021.42
2022-10-18T15:37:03.771Z,1021.42
2022-10-18T15:38:03.798Z,1021.43
2022-10-18T15:39:03.120Z,1021.44
2022-10-18T15:40:02.114Z,1021.49
2022-10-18T15:41:03.799Z,1021.46
2022-10-18T15:42:02.132Z,1021.47
2022-10-18T15:43:03.800Z,1021.45
2022-10-18T15:44:03.133Z,1021.47
2022-10-18T15:45:02.122Z,1021.46
2022-10-18T15:46:05.340Z,1021.44
2022-10-18T15:47:03.808Z,1021.45
2022-10-18T15:48:02.114Z,1021.46
2022-10-18T15:49:03.131Z,1021.46
2022-10-18T15:50:03.782Z,1021.48
2022-10-18T15:51:03.109Z,1021.45
2022-10-18T15:52:03.824Z,1021.43
2022-10-18T15:53:03.130Z,1021.42
2022-10-18T15:54:03.799Z,1021.40
2022-10-18T15:55:02.133Z,1021.38
2022-10-18T15:56:03.799Z,1021.40
2022-10-18T15:57:03.810Z,1021.35
2022-10-18T15:58:03.775Z,1021.36
2022-10-18T15:59:03.800Z,1021.32
2022-10-18T16:00:03.801Z,1021.35
2022-10-18T16:12:14.540Z,1021.39
2022-10-18T16:13:14.567Z,1021.39
2022-10-18T16:14:14.497Z,1021.41
2022-10-18T16:15:12.895Z,1021.39
2022-10-18T16:16:14.498Z,1021.37
2022-10-18T16:17:14.524Z,1021.37
2022-10-18T16:18:14.502Z,1021.38
2022-10-18T16:19:14.504Z,1021.39
2022-10-18T16:20:14.504Z,1021.43
2022-10-18T16:21:14.503Z,1021.40
2022-10-18T16:22:14.564Z,1021.40
2022-10-18T16:23:12.873Z,1021.43
2022-10-18T16:24:14.519Z,1021.42
2022-10-18T16:25:14.505Z,1021.42
2022-10-18T16:26:14.540Z,1021.44
2022-10-18T16:27:14.523Z,1021.49
2022-10-18T16:28:13.865Z,1021.50